createdAt,value
2019-04-23T00:00:38.030Z,2.08
2019-04-23T00:02:42.194Z,2.10
2019-04-23T00:04:29.012Z,2.10
2019-04-23T00:06:45.565Z,2.20
2019-04-23T00:08:59.166Z,2.35
2019-04-23T00:10:43.012Z,2.30
2019-04-23T00:12:47.828Z,2.30
2019-04-23T00:16:59.607Z,2.40
2019-04-23T00:18:56.057Z,2.42
2019-04-23T00:23:16.352Z,2.37
2019-04-23T00:27:42.851Z,2.40
2019-04-23T00:29:56.173Z,2.25
2019-04-23T00:31:56.169Z,2.10
2019-04-23T00:33:57.537Z,2.20
2019-04-23T00:35:56.534Z,2.10
2019-04-23T00:38:04.679Z,2.17
2019-04-23T00:40:03.086Z,2.50
2019-04-23T00:42:15.212Z,2.50
2019-04-23T00:44:14.949Z,2.50
2019-04-23T00:46:22.277Z,2.25
2019-04-23T00:52:33.799Z,2.30
2019-04-23T00:54:39.702Z,2.10
2019-04-23T01:02:57.314Z,2.05
2019-04-23T01:04:58.571Z,2.30
2019-04-23T01:07:01.808Z,2.08
2019-04-23T01:09:03.710Z,2.33
2019-04-23T01:11:09.349Z,2.10
2019-04-23T01:13:24.226Z,2.10
2019-04-23T01:15:29.964Z,2.33
2019-04-23T01:17:35.031Z,2.10
2019-04-23T01:19:37.291Z,2.33
2019-04-23T01:21:47.461Z,2.00
2019-04-23T01:24:14.135Z,2.33
2019-04-23T01:26:29.623Z,2.20
2019-04-23T01:29:02.828Z,2.40
2019-04-23T01:30:49.153Z,2.30
2019-04-23T01:32:51.808Z,2.52
2019-04-23T01:34:59.444Z,2.45
2019-04-23T01:36:55.945Z,2.40
2019-04-23T01:39:06.335Z,2.55
2019-04-23T01:41:09.762Z,2.33
2019-04-23T01:43:07.727Z,2.42
2019-04-23T01:45:20.346Z,2.70
2019-04-23T01:47:19.853Z,2.87
2019-04-23T01:49:31.202Z,2.27
2019-04-23T01:51:38.078Z,2.45
2019-04-23T01:53:48.160Z,2.50
2019-04-23T01:55:33.053Z,2.37
2019-04-23T01:57:47.127Z,2.45
2019-04-23T01:59:48.741Z,2.70
2019-04-23T02:03:54.757Z,2.45
2019-04-23T02:08:03.562Z,2.33
2019-04-23T02:12:15.753Z,2.77
2019-04-23T02:14:16.480Z,2.77
2019-04-23T02:16:19.399Z,2.50
2019-04-23T02:18:18.257Z,2.67
2019-04-23T02:22:56.238Z,2.70
2019-04-23T02:24:52.701Z,2.87
2019-04-23T02:26:43.555Z,2.92
2019-04-23T02:28:54.585Z,2.87
2019-04-23T02:35:17.287Z,2.50
2019-04-23T02:39:13.107Z,3.12
2019-04-23T02:43:20.561Z,2.58
2019-04-23T02:47:42.555Z,2.85
2019-04-23T02:49:45.901Z,3.05
2019-04-23T02:51:48.915Z,2.95
2019-04-23T02:54:00.578Z,2.62
2019-04-23T02:58:00.786Z,3.12
2019-04-23T03:02:15.609Z,3.00
2019-04-23T03:04:26.806Z,2.70
2019-04-23T03:06:16.387Z,3.33
2019-04-23T03:08:20.297Z,3.47
2019-04-23T03:12:43.751Z,2.85
2019-04-23T03:14:27.128Z,2.90
2019-04-23T03:16:56.586Z,3.05
2019-04-23T03:21:27.009Z,2.55
2019-04-23T03:23:34.918Z,3.17
2019-04-23T03:25:45.462Z,3.25
2019-04-23T03:27:50.040Z,2.87
2019-04-23T03:38:20.439Z,3.20
2019-04-23T03:42:17.722Z,4.05
2019-04-23T03:44:29.890Z,3.30
2019-04-23T03:46:34.061Z,3.67
2019-04-23T03:50:35.389Z,3.33
2019-04-23T03:52:38.547Z,2.90
2019-04-23T03:58:59.679Z,3.42
2019-04-23T04:00:58.879Z,3.27
2019-04-23T04:03:11.230Z,3.42
2019-04-23T04:05:03.691Z,3.25
2019-04-23T04:11:21.675Z,2.90
2019-04-23T04:13:31.591Z,2.83
2019-04-23T04:15:47.104Z,3.02
2019-04-23T04:19:47.042Z,3.22
2019-04-23T04:21:39.903Z,3.65
2019-04-23T04:23:51.773Z,3.12
2019-04-23T04:25:46.700Z,3.20
2019-04-23T04:28:02.874Z,3.22
2019-04-23T04:30:05.719Z,3.20
2019-04-23T04:32:00.272Z,3.08
2019-04-23T04:36:18.106Z,3.70
2019-04-23T04:38:32.384Z,2.90
2019-04-23T04:42:18.577Z,3.08
2019-04-23T04:46:44.208Z,3.70
2019-04-23T04:48:44.347Z,2.92
2019-04-23T04:50:46.945Z,3.22
2019-04-23T04:54:37.011Z,3.40
2019-04-23T04:56:57.554Z,3.00
2019-04-23T04:58:53.050Z,3.27
2019-04-23T05:01:08.571Z,3.20
2019-04-23T05:07:10.846Z,3.37
2019-04-23T05:09:27.245Z,3.35
2019-04-23T05:11:36.295Z,3.02
2019-04-23T05:15:25.539Z,3.20
2019-04-23T05:18:15.512Z,3.25
2019-04-23T05:19:57.216Z,3.33
2019-04-23T05:21:53.974Z,3.40
2019-04-23T05:25:51.506Z,3.58
2019-04-23T05:30:09.459Z,3.20
2019-04-23T05:32:04.445Z,3.60
2019-04-23T05:40:00.417Z,3.70
2019-04-23T05:41:53.724Z,3.37
2019-04-23T05:44:05.118Z,3.27
2019-04-23T05:46:04.401Z,3.47
2019-04-23T05:50:21.549Z,3.75
2019-04-23T05:54:18.682Z,3.98
2019-04-23T05:56:21.400Z,3.95
2019-04-23T05:58:32.981Z,4.17
2019-04-23T06:00:34.774Z,3.58
2019-04-23T06:02:42.837Z,3.87
2019-04-23T06:04:37.009Z,3.58
2019-04-23T06:08:47.575Z,4.20
2019-04-23T06:10:55.530Z,4.10
2019-04-23T06:13:02.971Z,4.22
2019-04-23T06:14:57.407Z,3.90
2019-04-23T06:17:03.170Z,4.10
2019-04-23T06:23:24.994Z,4.03
2019-04-23T06:25:45.971Z,4.30
2019-04-23T06:31:38.020Z,4.62
2019-04-23T06:35:47.110Z,3.95
2019-04-23T06:39:48.039Z,3.83
2019-04-23T06:46:05.483Z,4.25
2019-04-23T06:48:19.849Z,4.30
2019-04-23T06:50:14.820Z,4.00
2019-04-23T06:52:19.111Z,4.37
2019-04-23T06:54:24.415Z,4.40
2019-04-23T06:58:32.374Z,4.08
2019-04-23T07:00:33.946Z,4.60
2019-04-23T07:02:38.827Z,4.50
2019-04-23T07:04:51.473Z,4.42
2019-04-23T07:06:58.104Z,4.55
2019-04-23T07:09:07.795Z,4.70
2019-04-23T07:11:05.350Z,4.80
2019-04-23T07:13:04.920Z,4.30
2019-04-23T07:15:12.907Z,5.10
2019-04-23T07:17:21.193Z,4.50
2019-04-23T07:19:19.879Z,4.70
2019-04-23T07:21:20.241Z,4.67
2019-04-23T07:23:38.106Z,4.58
2019-04-23T07:25:29.505Z,4.70
2019-04-23T07:27:24.674Z,5.00
2019-04-23T07:29:31.455Z,5.12
2019-04-23T07:33:44.436Z,5.42
2019-04-23T07:35:45.446Z,4.95
2019-04-23T07:37:57.878Z,4.67
2019-04-23T07:40:19.968Z,5.10
2019-04-23T07:42:18.414Z,5.12
2019-04-23T07:44:42.375Z,5.22
2019-04-23T07:47:05.346Z,5.60
2019-04-23T07:48:56.332Z,5.20
2019-04-23T07:50:55.643Z,5.03
2019-04-23T07:53:18.883Z,5.40
2019-04-23T07:55:06.727Z,5.00
2019-04-23T07:57:15.285Z,5.53
2019-04-23T07:59:19.450Z,5.40
2019-04-23T08:01:26.863Z,5.42
2019-04-23T08:03:40.463Z,5.80
2019-04-23T08:05:26.404Z,5.03
2019-04-23T08:07:35.445Z,5.58
2019-04-23T08:09:43.053Z,5.58
2019-04-23T08:13:59.029Z,5.50
2019-04-23T08:15:46.656Z,5.42
2019-04-23T08:17:51.116Z,5.45
2019-04-23T08:22:07.027Z,5.85
2019-04-23T08:24:18.403Z,5.35
2019-04-23T08:26:42.838Z,5.42
2019-04-23T08:29:00.989Z,5.00
2019-04-23T08:30:50.237Z,5.97
2019-04-23T08:32:52.164Z,5.72
2019-04-23T08:34:58.406Z,5.72
2019-04-23T08:37:06.430Z,6.12
2019-04-23T08:39:05.335Z,5.85
2019-04-23T08:41:20.652Z,6.05
2019-04-23T08:47:40.516Z,6.70
2019-04-23T08:53:55.474Z,5.78
2019-04-23T08:55:58.146Z,6.25
2019-04-23T08:58:06.234Z,6.62
2019-04-23T09:00:12.550Z,6.83
2019-04-23T09:04:18.537Z,6.62
2019-04-23T09:06:17.219Z,6.80
2019-04-23T09:08:27.834Z,7.30
2019-04-23T09:12:35.032Z,6.25
2019-04-23T09:14:42.143Z,7.20
2019-04-23T09:16:44.771Z,6.58
2019-04-23T09:19:03.937Z,7.70
2019-04-23T09:20:41.061Z,6.55
2019-04-23T09:23:01.915Z,6.67
2019-04-23T09:27:09.827Z,6.53
2019-04-23T09:29:04.490Z,6.95
2019-04-23T09:33:33.965Z,7.10
2019-04-23T09:36:06.556Z,6.72
2019-04-23T09:41:13.053Z,7.17
2019-04-23T09:45:22.864Z,6.60
2019-04-23T09:49:50.054Z,7.67
2019-04-23T09:51:56.307Z,7.50
2019-04-23T09:53:57.735Z,7.22
2019-04-23T09:55:53.727Z,6.80
2019-04-23T09:58:08.306Z,6.72
2019-04-23T10:00:10.179Z,6.67
2019-04-23T10:02:04.358Z,6.97
2019-04-23T10:04:00.193Z,7.80
2019-04-23T10:06:01.904Z,6.92
2019-04-23T10:08:05.126Z,6.83
2019-04-23T10:10:01.628Z,6.95
2019-04-23T10:12:05.132Z,7.30
2019-04-23T10:14:08.291Z,7.65
2019-04-23T10:16:15.249Z,7.20
2019-04-23T10:18:16.178Z,6.87
2019-04-23T10:20:18.372Z,6.78
2019-04-23T10:22:20.531Z,6.87
2019-04-23T10:24:23.313Z,7.78
2019-04-23T10:26:25.995Z,8.03
2019-04-23T10:30:58.834Z,8.18
2019-04-23T10:33:01.518Z,9.05
2019-04-23T10:35:14.642Z,7.80
2019-04-23T10:37:09.458Z,8.03
2019-04-23T10:39:19.588Z,7.80
2019-04-23T10:41:16.210Z,9.68
2019-04-23T10:45:48.447Z,8.78
2019-04-23T10:48:33.074Z,9.03
2019-04-23T10:51:05.623Z,9.60
2019-04-23T10:53:19.533Z,9.55
2019-04-23T10:55:14.539Z,9.33
2019-04-23T10:57:25.252Z,10.00
2019-04-23T11:01:46.734Z,9.88
2019-04-23T11:04:10.643Z,10.15
2019-04-23T11:06:02.158Z,9.70
2019-04-23T11:07:43.954Z,9.83
2019-04-23T11:12:14.601Z,9.75
2019-04-23T11:14:19.762Z,10.05
2019-04-23T11:18:33.812Z,10.15
2019-04-23T11:20:30.261Z,10.28
2019-04-23T11:22:42.614Z,10.85
2019-04-23T11:26:42.390Z,9.73
2019-04-23T11:28:38.448Z,9.78
2019-04-23T11:33:03.467Z,10.48
2019-04-23T11:35:14.288Z,10.35
2019-04-23T11:37:12.406Z,10.63
2019-04-23T11:39:23.205Z,10.08
2019-04-23T11:41:21.516Z,10.50
2019-04-23T11:43:20.347Z,9.90
2019-04-23T11:47:47.043Z,9.60
2019-04-23T11:49:46.262Z,9.38
2019-04-23T11:51:54.048Z,9.15
2019-04-23T11:53:41.304Z,8.98
2019-04-23T11:55:44.849Z,9.05
2019-04-23T12:02:05.316Z,9.95
2019-04-23T12:04:37.136Z,10.75
2019-04-23T12:06:46.003Z,9.50
2019-04-23T12:09:08.253Z,8.95
2019-04-23T12:11:50.254Z,10.20
2019-04-23T12:13:35.859Z,10.78
2019-04-23T12:15:39.493Z,9.03
2019-04-23T12:17:46.742Z,10.28
2019-04-23T12:19:55.734Z,10.60
2019-04-23T12:26:03.147Z,9.13
2019-04-23T12:28:06.573Z,9.00
2019-04-23T12:32:45.065Z,10.48
2019-04-23T12:34:36.077Z,10.18
2019-04-23T12:36:46.878Z,10.45
2019-04-23T12:38:56.794Z,10.88
2019-04-23T12:40:56.407Z,10.30
2019-04-23T12:43:12.938Z,10.20
2019-04-23T12:45:16.827Z,10.35
2019-04-23T12:47:20.532Z,10.65
2019-04-23T12:49:35.733Z,10.63
2019-04-23T12:51:33.410Z,10.38
2019-04-23T12:53:27.313Z,10.32
2019-04-23T12:55:34.211Z,10.60
2019-04-23T12:57:35.799Z,11.10
2019-04-23T12:59:36.778Z,10.40
2019-04-23T13:01:47.116Z,10.23
2019-04-23T13:05:49.144Z,10.70
2019-04-23T13:10:15.112Z,10.50
2019-04-23T13:11:58.268Z,9.78
2019-04-23T13:14:07.168Z,10.53
2019-04-23T13:16:25.457Z,10.23
2019-04-23T13:18:15.646Z,10.55
2019-04-23T13:20:20.406Z,9.58
2019-04-23T13:22:25.694Z,9.93
2019-04-23T13:24:40.777Z,10.98
2019-04-23T13:26:46.382Z,10.95
2019-04-23T13:28:45.419Z,10.78
2019-04-23T13:33:01.134Z,11.50
2019-04-23T13:35:23.066Z,10.43
2019-04-23T13:37:12.465Z,10.78
2019-04-23T13:39:14.265Z,10.90
2019-04-23T13:41:23.434Z,10.25
2019-04-23T13:43:29.908Z,9.93
2019-04-23T13:45:49.908Z,10.55
2019-04-23T13:47:39.319Z,10.28
2019-04-23T13:49:39.670Z,10.50
2019-04-23T13:51:32.596Z,11.20
2019-04-23T13:55:42.653Z,11.73
2019-04-23T13:58:55.017Z,11.93
2019-04-23T13:59:51.474Z,10.72
2019-04-23T14:01:46.910Z,12.25
2019-04-23T14:04:24.848Z,12.20
2019-04-23T14:08:20.480Z,11.50
2019-04-23T14:10:26.970Z,12.07
2019-04-23T14:12:30.628Z,12.55
2019-04-23T14:14:39.765Z,11.97
2019-04-23T14:20:35.288Z,11.25
2019-04-23T14:24:59.259Z,10.25
2019-04-23T14:26:50.896Z,11.28
2019-04-23T14:30:59.252Z,11.73
2019-04-23T14:33:00.859Z,11.75
2019-04-23T14:35:18.483Z,11.60
2019-04-23T14:37:16.506Z,10.65
2019-04-23T14:39:12.148Z,11.50
2019-04-23T14:43:40.286Z,11.43
2019-04-23T14:45:59.679Z,11.73
2019-04-23T14:47:46.385Z,11.20
2019-04-23T14:50:09.288Z,11.65
2019-04-23T14:51:52.457Z,11.95
2019-04-23T14:53:59.665Z,11.43
2019-04-23T14:56:07.784Z,11.22
2019-04-23T14:58:17.497Z,10.88
2019-04-23T15:02:23.140Z,11.40
2019-04-23T15:04:20.432Z,10.20
2019-04-23T15:06:29.542Z,10.70
2019-04-23T15:08:30.174Z,11.20
2019-04-23T15:10:32.579Z,10.65
2019-04-23T15:14:46.451Z,10.43
2019-04-23T15:16:49.853Z,10.28
2019-04-23T15:19:14.551Z,11.00
2019-04-23T15:21:34.100Z,10.13
2019-04-23T15:23:38.545Z,10.20
2019-04-23T15:25:30.149Z,9.23
2019-04-23T15:29:08.520Z,10.75
2019-04-23T15:31:34.897Z,10.70
2019-04-23T15:33:34.850Z,10.10
2019-04-23T15:35:55.404Z,10.43
2019-04-23T15:38:12.079Z,9.70
2019-04-23T15:39:49.582Z,10.30
2019-04-23T15:41:55.959Z,9.70
2019-04-23T15:46:02.119Z,9.63
2019-04-23T15:48:03.268Z,9.65
2019-04-23T15:50:19.945Z,9.18
2019-04-23T15:56:26.830Z,9.95
2019-04-23T15:58:26.310Z,9.23
2019-04-23T16:00:17.806Z,9.50
2019-04-23T16:02:01.394Z,10.23
2019-04-23T16:04:03.553Z,10.08
2019-04-23T16:06:07.925Z,10.03
2019-04-23T16:08:45.809Z,9.90
2019-04-23T16:10:52.325Z,9.23
2019-04-23T16:12:53.441Z,10.08
2019-04-23T16:14:58.508Z,9.03
2019-04-23T16:16:59.736Z,9.35
2019-04-23T16:19:25.212Z,9.30
2019-04-23T16:21:34.185Z,9.48
2019-04-23T16:23:28.281Z,9.60
2019-04-23T16:25:31.688Z,9.20
2019-04-23T16:27:34.891Z,9.05
2019-04-23T16:29:53.781Z,9.13
2019-04-23T16:36:19.231Z,8.63
2019-04-23T16:40:28.953Z,9.55
2019-04-23T16:42:29.630Z,9.38
2019-04-23T16:44:38.449Z,9.05
2019-04-23T16:46:31.408Z,9.45
2019-04-23T16:48:55.476Z,9.48
2019-04-23T16:51:00.696Z,9.00
2019-04-23T16:52:56.029Z,8.93
2019-04-23T16:57:22.820Z,9.18
2019-04-23T16:59:08.760Z,9.50
2019-04-23T17:01:07.263Z,9.33
2019-04-23T17:03:18.834Z,9.03
2019-04-23T17:05:19.648Z,8.95
2019-04-23T17:07:29.937Z,9.75
2019-04-23T17:09:18.547Z,9.35
2019-04-23T17:13:38.063Z,9.13
2019-04-23T17:15:36.711Z,9.25
2019-04-23T17:17:35.815Z,9.75
2019-04-23T17:19:41.078Z,9.10
2019-04-23T17:21:44.394Z,10.43
2019-04-23T17:23:59.160Z,9.48
2019-04-23T17:25:59.311Z,9.45
2019-04-23T17:28:09.057Z,9.28
2019-04-23T17:29:58.860Z,9.73
2019-04-23T17:32:14.864Z,9.05
2019-04-23T17:34:30.159Z,8.98
2019-04-23T17:37:05.294Z,9.25
2019-04-23T17:41:21.482Z,9.78
2019-04-23T17:43:25.893Z,9.65
2019-04-23T17:47:52.313Z,9.65
2019-04-23T17:52:05.501Z,9.25
2019-04-23T17:54:17.490Z,9.85
2019-04-23T17:56:27.255Z,9.40
2019-04-23T17:58:15.691Z,9.83
2019-04-23T18:00:28.404Z,9.90
2019-04-23T18:04:27.437Z,9.98
2019-04-23T18:08:32.691Z,9.88
2019-04-23T18:10:41.565Z,10.23
2019-04-23T18:12:43.591Z,9.73
2019-04-23T18:14:45.087Z,10.75
2019-04-23T18:17:01.514Z,10.03
2019-04-23T18:21:29.538Z,10.48
2019-04-23T18:23:09.931Z,10.10
2019-04-23T18:25:45.754Z,10.48
2019-04-23T18:27:48.293Z,9.80
2019-04-23T18:32:22.153Z,9.78
2019-04-23T18:34:26.552Z,10.18
2019-04-23T18:36:13.518Z,9.65
2019-04-23T18:38:29.012Z,9.83
2019-04-23T18:40:28.420Z,10.68
2019-04-23T18:42:45.113Z,10.18
2019-04-23T18:44:42.166Z,10.25
2019-04-23T18:46:41.848Z,10.08
2019-04-23T18:50:53.708Z,10.88
2019-04-23T18:52:55.880Z,10.45
2019-04-23T18:54:57.345Z,9.53
2019-04-23T18:57:10.003Z,10.50
2019-04-23T19:03:33.027Z,10.25
2019-04-23T19:05:40.569Z,11.22
2019-04-23T19:08:21.285Z,10.48
2019-04-23T19:10:30.613Z,10.85
2019-04-23T19:12:59.593Z,10.23
2019-04-23T19:15:09.435Z,10.50
2019-04-23T19:17:38.674Z,10.78
2019-04-23T19:19:09.695Z,10.50
2019-04-23T19:21:15.657Z,11.33
2019-04-23T19:23:25.496Z,10.50
2019-04-23T19:25:22.861Z,10.58
2019-04-23T19:29:41.711Z,11.22
2019-04-23T19:31:55.382Z,10.98
2019-04-23T19:36:17.810Z,11.25
2019-04-23T19:38:17.943Z,10.88
2019-04-23T19:40:26.326Z,11.05
2019-04-23T19:42:17.944Z,11.20
2019-04-23T19:44:32.882Z,10.88
2019-04-23T19:48:42.766Z,10.40
2019-04-23T19:50:51.974Z,11.20
2019-04-23T19:53:15.668Z,11.60
2019-04-23T19:54:59.929Z,11.03
2019-04-23T19:58:59.693Z,11.35
2019-04-23T20:05:08.812Z,10.90
2019-04-23T20:09:33.482Z,11.57
2019-04-23T20:13:33.099Z,10.20
2019-04-23T20:15:29.197Z,11.12
2019-04-23T20:17:37.792Z,11.22
2019-04-23T20:21:47.387Z,12.47
2019-04-23T20:26:10.309Z,11.85
2019-04-23T20:32:26.782Z,11.50
2019-04-23T20:34:56.297Z,10.63
2019-04-23T20:39:02.614Z,12.28
2019-04-23T20:41:06.324Z,11.35
2019-04-23T20:42:58.683Z,11.73
2019-04-23T20:45:10.339Z,12.20
2019-04-23T20:47:13.286Z,12.20
2019-04-23T20:49:17.629Z,11.35
2019-04-23T20:51:31.175Z,11.83
2019-04-23T20:53:22.768Z,12.45
2019-04-23T20:55:45.211Z,11.93
2019-04-23T21:00:23.481Z,12.20
2019-04-23T21:02:42.106Z,11.60
2019-04-23T21:04:39.679Z,12.78
2019-04-23T21:06:39.786Z,12.35
2019-04-23T21:09:05.722Z,11.70
2019-04-23T21:10:42.958Z,12.33
2019-04-23T21:15:16.033Z,12.05
2019-04-23T21:16:54.694Z,12.98
2019-04-23T21:18:55.013Z,12.18
2019-04-23T21:21:02.098Z,12.55
2019-04-23T21:23:11.161Z,12.73
2019-04-23T21:25:08.202Z,12.58
2019-04-23T21:27:39.853Z,12.13
2019-04-23T21:29:46.843Z,11.93
2019-04-23T21:31:41.321Z,11.83
2019-04-23T21:33:44.227Z,12.65
2019-04-23T21:36:13.443Z,13.18
2019-04-23T21:38:41.820Z,12.28
2019-04-23T21:42:57.654Z,12.65
2019-04-23T21:44:53.917Z,13.50
2019-04-23T21:46:55.358Z,12.80
2019-04-23T21:53:06.243Z,12.95
2019-04-23T21:56:37.262Z,13.80
2019-04-23T22:00:57.038Z,14.45
2019-04-23T22:02:54.784Z,13.75
2019-04-23T22:04:52.169Z,13.80
2019-04-23T22:06:52.879Z,13.22
2019-04-23T22:09:10.979Z,14.28
2019-04-23T22:11:26.803Z,14.87
2019-04-23T22:13:24.570Z,14.23
2019-04-23T22:15:12.710Z,13.22
2019-04-23T22:17:20.603Z,14.07
2019-04-23T22:21:33.467Z,13.55
2019-04-23T22:23:40.830Z,14.18
2019-04-23T22:25:47.005Z,14.75
2019-04-23T22:27:41.307Z,15.20
2019-04-23T22:29:42.034Z,14.43
2019-04-23T22:31:47.467Z,14.40
2019-04-23T22:34:09.025Z,13.60
2019-04-23T22:38:07.015Z,14.90
2019-04-23T22:40:04.639Z,14.50
2019-04-23T22:44:32.866Z,13.65
2019-04-23T22:48:29.611Z,14.75
2019-04-23T22:50:31.683Z,15.05
2019-04-23T22:54:38.537Z,16.52
2019-04-23T22:56:50.400Z,15.63
2019-04-23T22:59:03.460Z,14.55
2019-04-23T23:01:14.349Z,15.05
2019-04-23T23:03:21.421Z,15.28
2019-04-23T23:05:37.464Z,15.00
2019-04-23T23:07:44.749Z,15.75
2019-04-23T23:09:44.858Z,16.52
2019-04-23T23:11:49.754Z,15.60
2019-04-23T23:14:02.341Z,16.40
2019-04-23T23:15:54.552Z,16.87
2019-04-23T23:18:07.438Z,16.73
2019-04-23T23:20:05.778Z,15.93
2019-04-23T23:26:09.717Z,16.40
2019-04-23T23:28:24.641Z,16.15
2019-04-23T23:30:22.958Z,16.73
2019-04-23T23:32:23.057Z,16.80
2019-04-23T23:34:27.643Z,17.40
2019-04-23T23:36:28.451Z,15.85
2019-04-23T23:40:52.763Z,17.35
2019-04-23T23:42:42.640Z,15.98
2019-04-23T23:46:56.577Z,16.50
2019-04-23T23:51:00.534Z,16.23
2019-04-23T23:55:09.040Z,17.20
2019-04-23T23:57:12.534Z,17.62
